Time;durP1;ratioP1;P1;durP2;ratioP2;P2;SDS_P1;SDS_P2;PMS_P1;PMS_P2;Temp;Humidity;BMP_temperature;BMP_pressure;BME280_temperature;BME280_humidity;BME280_pressure;Samples;Min_cycle;Max_cycle;Signal;HPM_P1;HPM_P2
2021/01/01 00:00:15;;;;;;;116.33;65.67;;;;;;;2.32;83.01;99419.46;120613;1151;104413;-83
2021/01/01 00:06:48;;;;;;;110.23;61.43;;;;;;;2.36;81.89;99413.44;120701;1150;104348;-83
2021/01/01 00:09:17;;;;;;;85.17;48.80;;;;;;;2.34;81.82;99420.33;120589;1151;104338;-83
2021/01/01 00:11:50;;;;;;;89.10;50.33;;;;;;;2.30;81.64;99422.93;120588;1151;104471;-83
2021/01/01 00:14:17;;;;;;;103.27;55.73;;;;;;;2.31;81.32;99419.48;120574;1151;104324;-83
2021/01/01 00:16:44;;;;;;;89.40;52.30;;;;;;;2.27;81.84;99426.39;120642;1151;104425;-83
2021/01/01 00:19:12;;;;;;;88.87;49.37;;;;;;;2.24;81.19;99421.29;120630;1151;104327;-83
2021/01/01 00:21:39;;;;;;;85.60;48.67;;;;;;;2.18;81.44;99434.23;120588;1151;104316;-83
2021/01/01 00:24:07;;;;;;;93.97;52.07;;;;;;;2.14;81.77;99437.69;120524;1151;104403;-83
2021/01/01 00:26:35;;;;;;;84.97;48.27;;;;;;;2.13;81.56;99433.41;120564;1151;104457;-83
2021/01/01 00:29:03;;;;;;;83.57;48.57;;;;;;;2.09;81.46;99437.74;120534;1150;104404;-83
2021/01/01 00:31:30;;;;;;;89.20;50.87;;;;;;;2.08;81.72;99432.62;120616;1150;102543;-83
2021/01/01 00:33:57;;;;;;;93.45;52.10;;;;;;;2.08;81.30;99433.47;120611;1151;104471;-83
2021/01/01 00:36:25;;;;;;;95.30;52.07;;;;;;;2.05;81.22;99435.23;120549;1151;104445;-83
2021/01/01 00:38:53;;;;;;;90.27;49.93;;;;;;;2.04;81.55;99436.09;120614;1151;104412;-82
2021/01/01 00:41:25;;;;;;;95.73;52.90;;;;;;;2.00;81.66;99437.86;120649;1150;104223;-83
2021/01/01 00:43:54;;;;;;;88.67;47.23;;;;;;;2.00;81.66;99431.86;120685;1150;104907;-83
2021/01/01 00:46:22;;;;;;;86.43;48.03;;;;;;;1.97;81.61;99434.44;120529;1151;103073;-83
2021/01/01 00:48:50;;;;;;;92.10;47.97;;;;;;;1.96;81.99;99438.73;120560;1151;104319;-84
2021/01/01 00:51:29;;;;;;;94.40;51.40;;;;;;;1.97;81.99;99439.58;120661;1151;104554;-82
2021/01/01 00:53:57;;;;;;;89.20;50.97;;;;;;;1.96;81.98;99432.73;120712;1151;104324;-82
2021/01/01 00:56:26;;;;;;;85.33;46.30;;;;;;;1.97;81.74;99430.14;120650;1149;104345;-83
2021/01/01 00:58:55;;;;;;;83.37;47.37;;;;;;;1.96;82.02;99433.59;120665;1150;104417;-83
2021/01/01 01:01:24;;;;;;;89.90;47.77;;;;;;;1.95;81.94;99428.47;120571;1150;104373;-82
2021/01/01 01:03:54;;;;;;;82.80;47.60;;;;;;;1.95;81.69;99428.47;120589;1150;104341;-83
2021/01/01 01:06:24;;;;;;;83.07;46.93;;;;;;;1.97;82.24;99431.87;120661;1151;104495;-83
2021/01/01 01:08:51;;;;;;;76.93;43.67;;;;;;;1.99;81.73;99435.30;120608;1150;103176;-83
2021/01/01 01:11:30;;;;;;;77.50;43.63;;;;;;;2.00;81.56;99437.86;120598;1151;104377;-82
2021/01/01 01:13:59;;;;;;;76.50;42.87;;;;;;;2.00;81.77;99442.15;120573;1151;104359;-82
2021/01/01 01:16:32;;;;;;;76.10;44.07;;;;;;;2.00;81.75;99434.44;120699;1150;104419;-83
2021/01/01 01:19:00;;;;;;;70.93;40.97;;;;;;;2.00;80.81;99440.43;120639;1149;104668;-83
2021/01/01 01:21:28;;;;;;;65.40;37.90;;;;;;;1.99;80.49;99432.73;120592;1151;104367;-82
2021/01/01 01:23:55;;;;;;;65.77;38.27;;;;;;;1.97;80.33;99435.29;120643;1150;104128;-83
2021/01/01 01:26:23;;;;;;;66.57;39.17;;;;;;;1.95;80.37;99436.17;120645;1150;104313;-83
2021/01/01 01:28:51;;;;;;;71.40;40.20;;;;;;;1.93;80.61;99432.77;120623;1151;104891;-83
2021/01/01 01:31:19;;;;;;;68.00;39.00;;;;;;;1.90;80.68;99428.52;120844;1150;104340;-83
2021/01/01 01:33:46;;;;;;;83.63;49.23;;;;;;;1.91;80.29;99429.37;120743;1151;104350;-82
2021/01/01 01:36:13;;;;;;;77.90;46.85;;;;;;;1.91;80.69;99430.22;120574;1150;109120;-83
2021/01/01 01:38:41;;;;;;;77.75;44.75;;;;;;;1.92;80.57;99429.35;120546;1151;104432;-83
2021/01/01 01:41:08;;;;;;;81.67;48.07;;;;;;;1.94;80.66;99431.91;120591;1151;104320;-83
2021/01/01 01:43:36;;;;;;;81.30;47.17;;;;;;;1.93;80.74;99427.63;120541;1151;104417;-83
2021/01/01 01:46:03;;;;;;;126.60;72.03;;;;;;;1.94;80.22;99431.91;120572;1151;102577;-83
2021/01/01 01:48:37;;;;;;;101.38;56.70;;;;;;;1.96;80.89;99432.73;120526;1151;104818;-83
2021/01/01 01:51:09;;;;;;;148.47;93.60;;;;;;;1.97;80.75;99435.29;120557;1151;104391;-83
2021/01/01 01:53:47;;;;;;;111.15;65.90;;;;;;;1.98;80.80;99431.88;120652;1151;104400;-83
2021/01/01 01:56:15;;;;;;;85.30;50.07;;;;;;;1.98;80.52;99437.02;120627;1151;104506;-83
2021/01/01 01:58:42;;;;;;;92.10;51.20;;;;;;;1.99;80.79;99436.16;120672;1150;102412;-82
2021/01/01 02:01:11;;;;;;;86.70;51.70;;;;;;;2.01;80.64;99430.99;120569;1150;104371;-82
2021/01/01 02:03:39;;;;;;;95.53;52.73;;;;;;;2.02;80.59;99437.84;120603;1151;103262;-83
2021/01/01 02:06:06;;;;;;;99.57;55.43;;;;;;;2.03;80.87;99435.25;120572;1150;102596;-83
2021/01/01 02:08:34;;;;;;;93.47;53.40;;;;;;;2.05;80.57;99436.08;120550;1151;104392;-83
2021/01/01 02:11:02;;;;;;;97.67;54.50;;;;;;;2.05;80.37;99430.94;120619;1150;104448;-83
2021/01/01 02:13:30;;;;;;;102.57;57.13;;;;;;;2.07;80.18;99428.34;120583;1151;104423;-83
2021/01/01 02:15:57;;;;;;;92.80;53.77;;;;;;;2.06;79.85;99434.36;120470;1151;104226;-82
2021/01/01 02:18:42;;;;;;;90.97;51.60;;;;;;;2.06;80.03;99430.06;120684;1150;103030;-82
2021/01/01 02:21:14;;;;;;;98.67;53.23;;;;;;;2.06;79.79;99430.06;120622;1151;104326;-83
2021/01/01 02:23:41;;;;;;;98.60;53.80;;;;;;;2.04;80.26;99425.81;120653;1151;101972;-84
2021/01/01 02:26:08;;;;;;;97.67;52.93;;;;;;;2.04;80.02;99430.95;120681;1150;104380;-84
2021/01/01 02:28:35;;;;;;;98.00;53.70;;;;;;;2.04;80.05;99425.81;120597;1151;106027;-83
2021/01/01 02:31:03;;;;;;;104.63;58.63;;;;;;;2.05;80.45;99433.51;120626;1150;104308;-83
2021/01/01 02:33:30;;;;;;;105.77;58.20;;;;;;;2.05;80.14;99428.36;120538;1150;103230;-83
2021/01/01 02:35:57;;;;;;;104.20;56.77;;;;;;;2.07;80.14;99426.62;120637;1151;104608;-82
2021/01/01 02:38:24;;;;;;;103.33;56.47;;;;;;;2.09;80.33;99435.17;120579;1151;104338;-83
2021/01/01 02:40:52;;;;;;;98.73;56.03;;;;;;;2.09;80.31;99429.17;120577;1150;104576;-83
2021/01/01 02:43:19;;;;;;;98.05;53.80;;;;;;;2.09;79.92;99429.17;120590;1150;104345;-83
2021/01/01 02:45:46;;;;;;;106.13;57.23;;;;;;;2.10;80.45;99433.45;120611;1151;104317;-82
2021/01/01 02:48:16;;;;;;;99.62;55.80;;;;;;;2.12;80.33;99426.56;120678;1150;104450;-82
2021/01/01 02:50:44;;;;;;;98.23;53.97;;;;;;;2.15;79.97;99430.82;120554;1151;104564;-83
2021/01/01 02:53:12;;;;;;;97.53;51.93;;;;;;;2.16;80.28;99428.26;120575;1151;104646;-83
2021/01/01 02:55:40;;;;;;;97.45;55.10;;;;;;;2.20;80.16;99432.49;120622;1151;104378;-83
2021/01/01 02:58:08;;;;;;;98.45;54.20;;;;;;;2.20;79.89;99437.64;120747;1151;104470;-83
2021/01/01 03:00:39;;;;;;;98.80;52.00;;;;;;;2.20;79.84;99431.64;120585;1148;104467;-84
2021/01/01 03:03:06;;;;;;;102.20;57.00;;;;;;;2.19;79.97;99435.94;120537;1151;103082;-84
2021/01/01 03:05:35;;;;;;;132.30;72.63;;;;;;;2.19;80.03;99435.09;120577;1150;104345;-83
2021/01/01 03:08:03;;;;;;;96.57;54.73;;;;;;;2.18;80.21;99430.81;120643;1151;104402;-83
2021/01/01 03:10:31;;;;;;;105.40;57.80;;;;;;;2.17;79.44;99432.53;120563;1151;103042;-83
2021/01/01 03:12:58;;;;;;;97.50;54.20;;;;;;;2.15;79.92;99431.67;120536;1150;104333;-83
2021/01/01 03:15:26;;;;;;;93.80;52.17;;;;;;;2.12;79.39;99429.98;120585;1151;104355;-83
2021/01/01 03:17:54;;;;;;;95.73;51.77;;;;;;;2.12;79.33;99435.13;120574;1151;104415;-83
2021/01/01 03:20:21;;;;;;;86.47;49.93;;;;;;;2.09;79.58;99431.75;120520;1151;104473;-83
2021/01/01 03:22:48;;;;;;;83.30;48.00;;;;;;;2.05;79.28;99432.66;120594;1151;104343;-83
2021/01/01 03:25:16;;;;;;;92.93;51.40;;;;;;;2.04;79.34;99441.24;120581;1151;104927;-83
2021/01/01 03:27:43;;;;;;;90.90;50.90;;;;;;;2.01;79.21;99436.14;120658;1150;104508;-83
2021/01/01 03:30:11;;;;;;;89.00;48.37;;;;;;;2.00;79.39;99430.14;120702;1151;105852;-83
2021/01/01 03:32:38;;;;;;;81.33;49.30;;;;;;;2.01;79.77;99433.56;120553;1151;104334;-83
2021/01/01 03:35:06;;;;;;;91.53;49.73;;;;;;;2.01;79.72;99436.98;120615;1151;102732;-83
2021/01/01 03:37:36;;;;;;;82.10;47.37;;;;;;;2.01;79.77;99433.56;120582;1150;104538;-83
2021/01/01 03:40:05;;;;;;;85.87;47.97;;;;;;;2.00;79.37;99434.44;120532;1151;104415;-83
2021/01/01 03:42:32;;;;;;;88.57;49.43;;;;;;;1.99;79.21;99437.87;120603;1151;104549;-83
2021/01/01 03:45:00;;;;;;;91.03;51.23;;;;;;;1.97;79.66;99439.58;120631;1150;105836;-83
2021/01/01 03:47:28;;;;;;;89.23;49.13;;;;;;;1.96;79.59;99441.30;120689;1151;104317;-83
2021/01/01 03:49:57;;;;;;;92.07;51.57;;;;;;;1.94;79.52;99439.63;120623;1149;104131;-83
2021/01/01 03:52:25;;;;;;;104.70;58.57;;;;;;;1.93;79.64;99437.92;120685;1151;104373;-83
2021/01/01 03:54:52;;;;;;;102.60;56.88;;;;;;;1.93;79.52;99437.92;120607;1151;104381;-83
2021/01/01 03:57:19;;;;;;;91.67;52.67;;;;;;;1.90;79.44;99436.23;120540;1151;104332;-83
2021/01/01 03:59:46;;;;;;;86.17;46.90;;;;;;;1.84;79.09;99438.88;120637;1151;102504;-83
2021/01/01 04:02:13;;;;;;;83.87;45.60;;;;;;;1.78;79.30;99439.77;120608;1151;104883;-82
2021/01/01 04:04:40;;;;;;;77.53;45.17;;;;;;;1.73;79.10;99436.39;120660;1151;104918;-82
2021/01/01 04:07:07;;;;;;;82.90;45.37;;;;;;;1.71;79.19;99440.70;120602;1150;104324;-83
2021/01/01 04:09:35;;;;;;;83.00;45.17;;;;;;;1.71;79.17;99437.28;120574;1150;104403;-83
2021/01/01 04:12:02;;;;;;;79.37;43.25;;;;;;;1.73;79.19;99441.53;120598;1151;104409;-83
2021/01/01 04:14:29;;;;;;;70.43;40.37;;;;;;;1.75;79.07;99444.94;120596;1150;104461;-83
2021/01/01 04:16:57;;;;;;;72.07;39.93;;;;;;;1.71;79.27;99437.28;120532;1151;104317;-83
2021/01/01 04:19:24;;;;;;;72.27;40.40;;;;;;;1.70;78.86;99440.72;120670;1151;104396;-83
2021/01/01 04:21:51;;;;;;;78.90;42.40;;;;;;;1.69;79.69;99441.59;120683;1151;104430;-82
2021/01/01 04:24:18;;;;;;;86.47;46.43;;;;;;;1.68;78.82;99445.03;120725;1149;104463;-83
2021/01/01 04:26:46;;;;;;;82.05;44.60;;;;;;;1.66;79.19;99445.05;120588;1150;104587;-83
2021/01/01 04:29:14;;;;;;;81.17;43.03;;;;;;;1.64;78.90;99441.64;120674;1150;104370;-83
2021/01/01 04:31:41;;;;;;;76.17;44.85;;;;;;;1.62;78.59;99443.38;120582;1151;104506;-81
2021/01/01 04:34:10;;;;;;;76.40;40.90;;;;;;;1.60;78.79;99445.08;120576;1151;105631;-83
2021/01/01 04:36:37;;;;;;;73.67;41.03;;;;;;;1.58;79.26;99444.23;120641;1150;104933;-83
2021/01/01 04:39:06;;;;;;;87.77;47.80;;;;;;;1.59;79.40;99445.94;120556;1151;104354;-83
2021/01/01 04:41:35;;;;;;;98.47;54.77;;;;;;;1.59;79.35;99443.38;120649;1150;104313;-83
2021/01/01 04:44:04;;;;;;;82.90;46.67;;;;;;;1.60;79.49;99450.22;120595;1151;104466;-83
2021/01/01 04:46:31;;;;;;;81.40;43.93;;;;;;;1.57;79.41;99445.11;120630;1150;104338;-82
2021/01/01 04:49:01;;;;;;;85.37;46.03;;;;;;;1.57;79.17;99449.40;120568;1150;104977;-83
2021/01/01 04:51:28;;;;;;;77.30;41.97;;;;;;;1.53;78.82;99447.72;120553;1151;104455;-83
2021/01/01 04:53:56;;;;;;;69.27;40.93;;;;;;;1.47;78.85;99451.20;120608;1151;104322;-83
2021/01/01 04:56:24;;;;;;;79.47;41.20;;;;;;;1.42;78.74;99452.94;120585;1151;104287;-83
2021/01/01 04:58:52;;;;;;;71.37;39.53;;;;;;;1.38;78.73;99454.69;120558;1149;104509;-83
2021/01/01 05:01:24;;;;;;;71.40;40.20;;;;;;;1.34;78.73;99452.16;120636;1150;104400;-83
2021/01/01 05:03:51;;;;;;;72.33;38.77;;;;;;;1.28;78.92;99459.92;120575;1150;104497;-83
2021/01/01 05:06:29;;;;;;;69.15;36.10;;;;;;;1.21;78.62;99456.52;120767;1150;104620;-83
2021/01/01 05:09:00;;;;;;;68.53;36.43;;;;;;;1.15;79.11;99462.56;120661;1150;104505;-83
2021/01/01 05:11:28;;;;;;;71.40;38.00;;;;;;;1.14;79.26;99460.86;120651;1150;104388;-83
2021/01/01 05:13:56;;;;;;;63.20;35.70;;;;;;;1.14;79.54;99463.43;120678;1150;104461;-83
2021/01/01 05:16:23;;;;;;;72.20;38.20;;;;;;;1.12;79.20;99465.16;120561;1151;104327;-83
2021/01/01 05:18:52;;;;;;;71.70;38.97;;;;;;;1.13;79.22;99466.86;120574;1151;104318;-83
2021/01/01 05:21:29;;;;;;;71.13;37.60;;;;;;;1.15;79.30;99467.70;120629;1151;104346;-83
2021/01/01 05:23:57;;;;;;;69.23;38.57;;;;;;;1.16;79.20;99473.69;120636;1150;104316;-83
2021/01/01 05:26:29;;;;;;;73.60;40.10;;;;;;;1.17;79.14;99471.11;120669;1150;104334;-83
2021/01/01 05:29:08;;;;;;;81.43;41.03;;;;;;;1.17;79.11;99478.81;120570;1150;104480;-83
2021/01/01 05:31:40;;;;;;;82.40;41.93;;;;;;;1.18;79.53;99477.95;120557;1151;104295;-83
2021/01/01 05:34:13;;;;;;;76.37;41.60;;;;;;;1.19;79.50;99478.80;120545;1151;104484;-83
2021/01/01 05:36:45;;;;;;;80.00;41.90;;;;;;;1.21;79.23;99479.64;120569;1150;105500;-82
2021/01/01 05:39:17;;;;;;;83.73;43.97;;;;;;;1.23;79.71;99477.91;120703;1150;104433;-83
2021/01/01 05:41:46;;;;;;;80.40;44.67;;;;;;;1.25;79.56;99483.89;120716;1150;104474;-83
2021/01/01 05:44:20;;;;;;;96.13;48.23;;;;;;;1.26;79.64;99484.73;120765;1150;104475;-83
2021/01/01 05:46:54;;;;;;;78.20;43.10;;;;;;;1.26;79.33;99487.30;120549;1149;104354;-82
2021/01/01 05:49:30;;;;;;;83.17;43.50;;;;;;;1.27;79.55;99491.61;120649;1150;103740;-83
2021/01/01 05:52:18;;;;;;;87.37;45.47;;;;;;;1.28;79.36;99494.17;120630;1150;104342;-83
2021/01/01 05:54:50;;;;;;;82.90;43.00;;;;;;;1.30;79.59;99491.59;120515;1151;104375;-83
2021/01/01 05:57:20;;;;;;;78.93;42.50;;;;;;;1.33;79.58;99500.12;120575;1151;105285;-83
2021/01/01 05:59:48;;;;;;;85.20;45.73;;;;;;;1.32;79.56;99500.98;120586;1151;104397;-83
2021/01/01 06:02:15;;;;;;;83.23;45.13;;;;;;;1.33;79.25;99489.84;120680;1150;104411;-82
2021/01/01 06:04:43;;;;;;;80.65;43.75;;;;;;;1.34;79.55;99491.55;120715;1150;104787;-83
2021/01/01 06:07:11;;;;;;;81.47;42.90;;;;;;;1.33;79.00;99501.84;120663;1150;104464;-83
2021/01/01 06:09:40;;;;;;;80.03;43.07;;;;;;;1.31;79.38;99493.29;120562;1150;104330;-83
2021/01/01 06:12:09;;;;;;;79.93;43.93;;;;;;;1.31;79.52;99495.86;120673;1151;104391;-83
2021/01/01 06:14:42;;;;;;;81.07;43.50;;;;;;;1.33;79.23;99491.56;120545;1149;104321;-83
2021/01/01 06:17:09;;;;;;;75.83;42.10;;;;;;;1.33;79.54;99489.84;120707;1150;103066;-83
2021/01/01 06:19:54;;;;;;;80.20;42.07;;;;;;;1.35;78.92;99490.68;120643;1151;104338;-83
2021/01/01 06:22:29;;;;;;;84.97;45.40;;;;;;;1.32;79.48;99490.70;120623;1149;104439;-83
2021/01/01 06:24:58;;;;;;;77.40;42.13;;;;;;;1.31;79.25;99493.29;120705;1150;104324;-83
2021/01/01 06:27:30;;;;;;;81.50;44.83;;;;;;;1.30;79.31;99491.59;120666;1151;104348;-83
2021/01/01 06:30:12;;;;;;;82.27;44.63;;;;;;;1.32;79.48;99489.86;120593;1151;104371;-83
2021/01/01 06:32:40;;;;;;;80.50;44.23;;;;;;;1.32;79.29;99489.86;120594;1150;104303;-83
2021/01/01 06:35:14;;;;;;;84.37;44.20;;;;;;;1.33;79.22;99491.56;120625;1151;104432;-83
2021/01/01 06:37:46;;;;;;;82.53;43.10;;;;;;;1.31;79.27;99493.29;120638;1150;104319;-83
2021/01/01 06:40:22;;;;;;;78.33;42.30;;;;;;;1.30;79.40;99489.87;120613;1151;104888;-83
2021/01/01 06:42:57;;;;;;;76.28;40.67;;;;;;;1.33;79.47;99497.55;120643;1151;104441;-83
2021/01/01 06:45:46;;;;;;;79.33;42.87;;;;;;;1.34;79.28;99495.83;120502;1150;104351;-83
2021/01/01 06:48:22;;;;;;;77.87;42.83;;;;;;;1.33;79.46;99487.27;120593;1150;104374;-82
2021/01/01 06:50:52;;;;;;;81.70;42.03;;;;;;;1.31;79.52;99490.72;120651;1149;104516;-83
2021/01/01 06:53:28;;;;;;;79.40;41.57;;;;;;;1.33;79.33;99488.99;120611;1150;104321;-83
2021/01/01 06:56:10;;;;;;;81.37;43.70;;;;;;;1.34;79.25;99488.98;120525;1150;104379;-83
2021/01/01 06:58:38;;;;;;;82.47;43.60;;;;;;;1.35;79.50;99494.97;120592;1150;104535;-83
2021/01/01 07:01:16;;;;;;;82.00;44.00;;;;;;;1.34;79.44;99490.70;120628;1151;104432;-82
2021/01/01 07:03:44;;;;;;;79.10;43.13;;;;;;;1.35;79.24;99489.83;120641;1150;104320;-82
2021/01/01 07:06:11;;;;;;;74.20;41.37;;;;;;;1.35;79.55;99487.27;120590;1150;104455;-83
2021/01/01 07:08:44;;;;;;;72.90;39.90;;;;;;;1.36;79.21;99494.95;120682;1150;104493;-83
2021/01/01 07:11:18;;;;;;;79.23;40.67;;;;;;;1.40;79.29;99495.78;120788;1150;104317;-82
2021/01/01 07:13:56;;;;;;;75.87;41.17;;;;;;;1.42;79.44;99497.47;120794;1150;104345;-83
2021/01/01 07:16:25;;;;;;;74.00;40.20;;;;;;;1.44;79.20;99497.48;120680;1151;104358;-82
2021/01/01 07:18:53;;;;;;;73.90;39.90;;;;;;;1.40;79.06;99498.34;120601;1151;104361;-83
2021/01/01 07:21:22;;;;;;;78.57;42.30;;;;;;;1.42;79.05;99506.89;120603;1150;103139;-83
2021/01/01 07:23:49;;;;;;;71.23;40.40;;;;;;;1.37;79.10;99500.95;120551;1150;104446;-83
2021/01/01 07:26:16;;;;;;;84.83;46.13;;;;;;;1.38;79.16;99506.07;120587;1150;104420;-83
2021/01/01 07:28:46;;;;;;;78.65;43.00;;;;;;;1.37;78.79;99504.37;120610;1151;104321;-83
2021/01/01 07:31:16;;;;;;;74.67;42.40;;;;;;;1.33;78.62;99501.84;120624;1151;104733;-83
2021/01/01 07:33:46;;;;;;;84.70;43.47;;;;;;;1.28;78.63;99503.59;120561;1151;104326;-82
2021/01/01 07:36:14;;;;;;;84.60;42.87;;;;;;;1.21;78.67;99503.61;120598;1151;104473;-83
2021/01/01 07:38:47;;;;;;;75.27;42.13;;;;;;;1.14;78.42;99506.23;120565;1151;104319;-82
2021/01/01 07:41:17;;;;;;;79.60;44.17;;;;;;;1.05;78.44;99503.70;120599;1151;104425;-83
2021/01/01 07:43:48;;;;;;;79.73;42.37;;;;;;;0.99;78.90;99509.73;120590;1150;104616;-83
2021/01/01 07:46:15;;;;;;;80.80;42.87;;;;;;;0.96;79.31;99504.63;120638;1151;104285;-83
2021/01/01 07:48:42;;;;;;;78.20;41.57;;;;;;;0.98;79.32;99508.03;120533;1150;104385;-82
2021/01/01 07:51:11;;;;;;;74.05;40.48;;;;;;;0.99;79.74;99509.73;120662;1150;104535;-82
2021/01/01 07:53:38;;;;;;;76.63;40.87;;;;;;;1.01;79.53;99513.15;120638;1151;104305;-82
2021/01/01 07:56:08;;;;;;;77.57;41.43;;;;;;;1.04;79.68;99514.84;120575;1151;104482;-82
2021/01/01 07:58:37;;;;;;;88.60;46.90;;;;;;;1.08;79.79;99519.13;120538;1151;105175;-82
2021/01/01 08:01:07;;;;;;;84.93;44.20;;;;;;;1.12;79.77;99515.67;120629;1151;104544;-82
2021/01/01 08:03:37;;;;;;;79.97;42.03;;;;;;;1.09;79.32;99518.27;120569;1151;104514;-83
2021/01/01 08:06:09;;;;;;;71.90;40.17;;;;;;;1.03;79.00;99513.99;120587;1151;104447;-83
2021/01/01 08:08:37;;;;;;;78.60;41.20;;;;;;;1.00;79.11;99516.58;120574;1151;104335;-84
2021/01/01 08:11:07;;;;;;;80.30;42.27;;;;;;;1.00;79.17;99519.15;120518;1151;104407;-83
2021/01/01 08:13:35;;;;;;;74.90;39.80;;;;;;;0.95;78.82;99522.61;120493;1150;104931;-83
2021/01/01 08:16:13;;;;;;;80.40;41.35;;;;;;;0.87;78.77;99523.48;120625;1150;104298;-82
2021/01/01 08:18:41;;;;;;;76.63;42.17;;;;;;;0.82;79.04;99527.79;120655;1150;104687;-83
2021/01/01 08:21:09;;;;;;;81.07;42.47;;;;;;;0.78;78.86;99520.97;120663;1151;104323;-83
2021/01/01 08:23:39;;;;;;;78.03;41.80;;;;;;;0.75;79.06;99532.97;120614;1150;103116;-83
2021/01/01 08:26:08;;;;;;;67.80;35.83;;;;;;;0.67;78.90;99529.56;120460;1150;104332;-83
2021/01/01 08:28:36;;;;;;;75.03;37.80;;;;;;;0.55;79.08;99527.91;120568;1150;104322;-83
2021/01/01 08:31:05;;;;;;;70.90;36.03;;;;;;;0.47;79.01;99525.35;120704;1150;104339;-83
2021/01/01 08:33:41;;;;;;;75.57;38.87;;;;;;;0.42;79.35;99532.22;120568;1151;104364;-83
2021/01/01 08:36:10;;;;;;;79.00;39.93;;;;;;;0.44;79.82;99532.21;120597;1150;104409;-83
2021/01/01 08:38:40;;;;;;;82.23;43.17;;;;;;;0.47;79.90;99537.33;120697;1151;104589;-82
2021/01/01 08:41:17;;;;;;;83.37;42.23;;;;;;;0.48;79.60;99536.47;120637;1150;104356;-83
2021/01/01 08:43:45;;;;;;;92.97;46.67;;;;;;;0.49;79.82;99536.45;120691;1151;104370;-83
2021/01/01 08:46:22;;;;;;;83.83;42.13;;;;;;;0.48;79.98;99546.73;120624;1151;104481;-83
2021/01/01 08:48:49;;;;;;;81.10;42.00;;;;;;;0.47;79.82;99545.88;120679;1150;104401;-83
2021/01/01 08:51:33;;;;;;;79.67;42.10;;;;;;;0.50;80.03;99539.88;120681;1151;104452;-83
2021/01/01 08:54:00;;;;;;;74.17;37.80;;;;;;;0.52;80.22;99546.70;120628;1151;104400;-83
2021/01/01 08:56:29;;;;;;;76.70;38.37;;;;;;;0.48;79.79;99541.59;120580;1149;105488;-83
2021/01/01 08:59:09;;;;;;;77.23;38.70;;;;;;;0.50;80.19;99542.44;120669;1150;104401;-82
2021/01/01 09:01:37;;;;;;;72.83;37.90;;;;;;;0.50;80.09;99538.16;120540;1150;104458;-84
2021/01/01 09:04:04;;;;;;;76.97;38.93;;;;;;;0.50;80.19;99550.99;120507;1151;104458;-82
2021/01/01 09:06:32;;;;;;;79.97;39.07;;;;;;;0.55;80.34;99548.44;120572;1150;104396;-83
2021/01/01 09:09:07;;;;;;;76.13;38.50;;;;;;;0.59;80.14;99553.55;120677;1150;104346;-83
2021/01/01 09:11:34;;;;;;;73.30;37.80;;;;;;;0.59;79.98;99552.70;120749;1150;104430;-81
2021/01/01 09:14:03;;;;;;;74.90;39.97;;;;;;;0.60;80.24;99554.40;120551;1151;103556;-83
2021/01/01 09:16:44;;;;;;;81.90;41.10;;;;;;;0.60;79.68;99556.97;120552;1150;104936;-83
2021/01/01 09:19:12;;;;;;;78.75;39.50;;;;;;;0.53;79.66;99558.67;120548;1150;104449;-83
2021/01/01 09:21:42;;;;;;;69.03;35.87;;;;;;;0.41;79.20;99563.86;120632;1150;104442;-83
2021/01/01 09:24:12;;;;;;;67.50;34.63;;;;;;;0.35;79.59;99563.00;120659;1151;103067;-83
2021/01/01 09:26:40;;;;;;;70.60;35.70;;;;;;;0.30;79.87;99566.43;120637;1151;106003;-81
2021/01/01 09:29:09;;;;;;;66.35;34.05;;;;;;;0.33;80.25;99565.56;120662;1150;104471;-83
2021/01/01 09:31:38;;;;;;;66.60;34.60;;;;;;;0.38;80.47;99569.00;120657;1150;103660;-83
2021/01/01 09:34:09;;;;;;;64.70;34.00;;;;;;;0.42;80.09;99574.97;120732;1150;104509;-82
2021/01/01 09:36:40;;;;;;;69.87;34.40;;;;;;;0.44;80.37;99566.41;120564;1149;104291;-83
2021/01/01 09:39:08;;;;;;;74.43;37.37;;;;;;;0.48;80.16;99560.41;120663;1150;104373;-82
2021/01/01 09:41:37;;;;;;;72.63;36.00;;;;;;;0.55;80.61;99568.97;120516;1151;104547;-84
2021/01/01 09:44:06;;;;;;;72.17;36.97;;;;;;;0.55;80.02;99569.81;120577;1150;104330;-83
2021/01/01 09:46:41;;;;;;;67.70;34.00;;;;;;;0.49;79.73;99562.11;120582;1150;104476;-84
2021/01/01 09:49:08;;;;;;;63.93;33.83;;;;;;;0.44;79.87;99568.98;120637;1151;104467;-84
2021/01/01 09:51:35;;;;;;;72.20;36.95;;;;;;;0.40;80.19;99566.43;120531;1151;104826;-84
2021/01/01 09:54:03;;;;;;;68.43;33.33;;;;;;;0.30;79.86;99566.43;120594;1150;104473;-84
2021/01/01 09:56:37;;;;;;;60.10;30.37;;;;;;;0.23;79.77;99558.77;120522;1151;104414;-84
2021/01/01 09:59:05;;;;;;;61.40;30.90;;;;;;;0.22;80.00;99550.22;120560;1151;104802;-84
2021/01/01 10:01:33;;;;;;;61.57;32.23;;;;;;;0.28;80.34;99557.03;120588;1150;104509;-84
2021/01/01 10:04:01;;;;;;;61.17;31.37;;;;;;;0.29;80.08;99553.61;120569;1151;104391;-83
2021/01/01 10:06:29;;;;;;;65.67;32.33;;;;;;;0.26;79.96;99553.63;120589;1151;104489;-83
2021/01/01 10:08:56;;;;;;;54.27;29.57;;;;;;;0.23;80.47;99551.07;120687;1150;104391;-82
2021/01/01 10:11:24;;;;;;;61.10;32.10;;;;;;;0.21;80.17;99560.48;120566;1150;104326;-83
2021/01/01 10:13:51;;;;;;;62.90;32.40;;;;;;;0.17;80.14;99558.75;120683;1151;104323;-83
2021/01/01 10:16:18;;;;;;;57.13;29.97;;;;;;;0.10;79.96;99562.19;120680;1149;104451;-83
2021/01/01 10:18:45;;;;;;;56.40;29.10;;;;;;;0.03;80.24;99570.75;120594;1150;104545;-83
2021/01/01 10:21:18;;;;;;;53.25;27.05;;;;;;;-0.08;80.49;99569.03;120548;1150;104393;-82
2021/01/01 10:23:45;;;;;;;48.57;25.43;;;;;;;-0.14;80.64;99563.92;120642;1151;104454;-82
2021/01/01 10:26:12;;;;;;;44.65;23.25;;;;;;;-0.15;80.56;99551.95;120570;1150;104385;-83
2021/01/01 10:28:39;;;;;;;49.23;24.90;;;;;;;-0.11;81.05;99560.50;120564;1150;104157;-82
2021/01/01 10:31:06;;;;;;;47.73;23.83;;;;;;;-0.12;80.79;99559.64;120651;1148;104381;-82
2021/01/01 10:33:33;;;;;;;55.00;27.37;;;;;;;-0.14;80.69;99558.79;120553;1151;104509;-82
2021/01/01 10:36:00;;;;;;;45.97;25.77;;;;;;;-0.14;80.46;99553.66;120554;1150;104579;-82
2021/01/01 10:38:27;;;;;;;49.45;25.37;;;;;;;-0.15;80.85;99551.95;120590;1151;102536;-82
2021/01/01 10:40:54;;;;;;;49.60;24.30;;;;;;;-0.14;81.01;99548.54;120445;1151;104438;-82
2021/01/01 10:43:21;;;;;;;56.92;27.50;;;;;;;-0.11;81.35;99543.41;120508;1151;104413;-83
2021/01/01 10:45:48;;;;;;;54.43;27.53;;;;;;;-0.13;81.39;99544.27;120500;1151;104358;-83
2021/01/01 10:48:15;;;;;;;55.03;27.15;;;;;;;-0.16;81.23;99545.13;120596;1151;104391;-83
2021/01/01 10:50:42;;;;;;;47.83;24.50;;;;;;;-0.18;81.34;99541.71;120643;1151;104499;-82
2021/01/01 10:53:09;;;;;;;55.90;26.30;;;;;;;-0.17;81.51;99535.73;120696;1150;104326;-83
2021/01/01 10:55:41;;;;;;;57.67;27.20;;;;;;;-0.19;81.34;99539.97;120578;1151;104364;-83
2021/01/01 10:58:08;;;;;;;56.83;25.90;;;;;;;-0.20;81.72;99545.95;120592;1151;102674;-83
2021/01/01 11:00:35;;;;;;;52.50;25.37;;;;;;;-0.28;81.57;99532.30;120540;1151;104389;-83
2021/01/01 11:03:02;;;;;;;46.13;21.53;;;;;;;-0.36;81.75;99541.67;120528;1151;104380;-83
2021/01/01 11:05:29;;;;;;;47.20;22.00;;;;;;;-0.46;81.51;99550.23;120628;1150;104957;-83
2021/01/01 11:07:57;;;;;;;50.53;23.90;;;;;;;-0.52;81.56;99539.98;120495;1151;104484;-82
2021/01/01 11:10:24;;;;;;;51.07;23.57;;;;;;;-0.48;81.80;99536.56;120629;1151;104383;-83
2021/01/01 11:12:51;;;;;;;56.93;27.40;;;;;;;-0.44;82.46;99533.14;120680;1151;104372;-83
2021/01/01 12:19:37;;;;;;;56.73;26.50;;;;;;;-0.42;82.47;99534.00;120524;1150;104368;-83
2021/01/01 12:25:10;;;;;;;41.00;18.57;;;;;;;-0.79;82.90;99559.55;120649;1151;104464;-83
2021/01/01 12:27:38;;;;;;;42.47;20.40;;;;;;;-0.82;82.95;99561.25;120609;1150;104284;-83